New Castle, DE

8:44 PM EDT on August 27, 2014 (GMT -0400)
Pennbeach | Change Station
CLOSE
Current Station
Personal Weather Station
Location: Pennsville Township, NJ
Elevation: 16 ft
Nearby Weather Stations
Active Advisory: Air Quality Alert

Elev 16 ft 39.65 °N, 75.53 °W | Updated 3 minutes ago

Clear
Clear
78.1 °F
Feels Like 80 °F
N
1.0
Wind Variable Wind from SE
Gusts 1.0 mph

Today
High -- | Low -- °F
--% Chance of Precip.
Yesterday
High -- | Low -- °F
Precip. -- in
6:25 AM 7:41 PM
Waxing Crescent, 5% visible
Pressure 29.90 in
Visibility 10.0 miles
Clouds Clear
Heat Index 80 °F
Dew Point 64 °F
Humidity 62%
Rainfall 0.00 in
Snow Depth Not available.
UV 0 out of 12
Pollen 9.80 out of 12
Air Quality Not available.
Flu Activity Not available.
METAR KILG 272351Z 23004KT 10SM CLR 28/19 A2990 RMK AO2 SLP124 T02780189 10306 20272 58010

More Conditions Fewer Conditions

Pressure 29.90 in
Visibility 10.0 miles
Clouds Clear
Heat Index 80 °F
Dew Point 64 °F
Humidity 62%
Rainfall 0.00 in
Snow Depth Not available.
UV 0 out of 12
Pollen 9.80 out of 12
Air Quality Not available.
Flu Activity Not available.
METAR KILG 272351Z 23004KT 10SM CLR 28/19 A2990 RMK AO2 SLP124 T02780189 10306 20272 58010

More Conditions Fewer Conditions

10-Day Weather Forecast

Almanac

Astronomy

Aug. 27, 2014 Rise Set
Actual Time 6:25 AM EDT 7:41 PM EDT
Civil Twilight 5:57 AM EDT 8:09 PM EDT
Nautical Twilight 5:24 AM EDT 8:42 PM EDT
Astronomical Twilight 4:49 AM EDT 9:17 PM EDT
Moon 8:19 AM EDT (8/27) 8:32 PM EDT (8/27)
Length of Visible Light 14h 11m
Length of Day
13h 15m
Tomorrow will be 2m 27s shorter.
Waxing Crescent, 5% of the Moon is Illuminated
Today
Waxing Crescent
Sep 2
First Quarter
Sep 8
Full
Sep 15
Last Quarter
Sep 24
New

Today's Extremes

State Highs State Lows

Community

WunderPhotos

Upload Photos

1,747,837 photos uploaded!

Nearby

Snow Depth

Station Depth Elevation
No new snow has been reported.

Earthquake Activity

City Distance Mag. Time & Date
No recent earthquake activity has been reported nearby.
Minimum magnitude displayed is 2.5.

Coastal Water Temperatures

Place Temperature
Ship John Shoal, NJ 78.1 °F
Cape May, NJ 81.0 °F
Reedy Point, DE 79.0 °F
Delaware City, DE 80.1 °F
Marcus Hook, PA 79.0 °F

Nearby Weather Stations